sensor_id;sensor_type;location;lat;lon;timestamp;P1;durP1;ratioP1;P2;durP2;ratioP2
58017;SDS011;43810;50.860;19.226;2023-07-31T00:01:24;6.43;;;4.63;;
58017;SDS011;43810;50.860;19.226;2023-07-31T00:03:50;7.03;;;4.38;;
58017;SDS011;43810;50.860;19.226;2023-07-31T00:06:16;5.20;;;4.05;;
58017;SDS011;43810;50.860;19.226;2023-07-31T00:08:42;5.72;;;4.28;;
58017;SDS011;43810;50.860;19.226;2023-07-31T00:11:08;5.22;;;4.07;;
58017;SDS011;43810;50.860;19.226;2023-07-31T00:13:33;8.00;;;4.55;;
58017;SDS011;43810;50.860;19.226;2023-07-31T00:15:59;6.38;;;4.82;;
58017;SDS011;43810;50.860;19.226;2023-07-31T00:18:25;6.00;;;4.25;;
58017;SDS011;43810;50.860;19.226;2023-07-31T00:20:52;5.53;;;4.13;;
58017;SDS011;43810;50.860;19.226;2023-07-31T00:23:17;8.63;;;4.75;;
58017;SDS011;43810;50.860;19.226;2023-07-31T00:25:44;7.95;;;4.97;;
58017;SDS011;43810;50.860;19.226;2023-07-31T00:28:09;7.05;;;4.25;;
58017;SDS011;43810;50.860;19.226;2023-07-31T00:30:36;5.30;;;4.80;;
58017;SDS011;43810;50.860;19.226;2023-07-31T00:33:01;5.75;;;4.50;;
58017;SDS011;43810;50.860;19.226;2023-07-31T00:35:27;6.60;;;4.35;;
58017;SDS011;43810;50.860;19.226;2023-07-31T00:37:53;5.38;;;4.45;;
58017;SDS011;43810;50.860;19.226;2023-07-31T00:40:19;7.40;;;4.40;;
58017;SDS011;43810;50.860;19.226;2023-07-31T00:42:45;9.35;;;4.82;;
58017;SDS011;43810;50.860;19.226;2023-07-31T00:45:10;8.40;;;5.18;;
58017;SDS011;43810;50.860;19.226;2023-07-31T00:47:36;6.47;;;4.38;;
58017;SDS011;43810;50.860;19.226;2023-07-31T00:50:03;6.45;;;5.10;;
58017;SDS011;43810;50.860;19.226;2023-07-31T00:52:28;7.07;;;5.18;;
58017;SDS011;43810;50.860;19.226;2023-07-31T00:54:54;6.28;;;4.63;;
58017;SDS011;43810;50.860;19.226;2023-07-31T00:57:20;8.30;;;4.93;;
58017;SDS011;43810;50.860;19.226;2023-07-31T00:59:46;5.75;;;4.22;;
58017;SDS011;43810;50.860;19.226;2023-07-31T01:02:12;6.07;;;5.47;;
58017;SDS011;43810;50.860;19.226;2023-07-31T01:04:38;7.28;;;4.70;;
58017;SDS011;43810;50.860;19.226;2023-07-31T01:12:18;6.53;;;3.90;;
58017;SDS011;43810;50.860;19.226;2023-07-31T01:15:02;4.30;;;3.63;;
58017;SDS011;43810;50.860;19.226;2023-07-31T01:17:28;6.45;;;4.13;;
58017;SDS011;43810;50.860;19.226;2023-07-31T01:19:54;4.25;;;3.85;;
58017;SDS011;43810;50.860;19.226;2023-07-31T01:22:34;5.30;;;3.85;;
58017;SDS011;43810;50.860;19.226;2023-07-31T01:28:27;4.35;;;3.13;;
58017;SDS011;43810;50.860;19.226;2023-07-31T01:31:09;5.30;;;3.05;;
58017;SDS011;43810;50.860;19.226;2023-07-31T01:33:37;5.68;;;2.92;;
58017;SDS011;43810;50.860;19.226;2023-07-31T01:36:04;5.07;;;3.45;;
58017;SDS011;43810;50.860;19.226;2023-07-31T01:38:31;3.40;;;2.78;;
58017;SDS011;43810;50.860;19.226;2023-07-31T01:40:57;4.00;;;2.85;;
58017;SDS011;43810;50.860;19.226;2023-07-31T01:43:22;3.13;;;2.75;;
58017;SDS011;43810;50.860;19.226;2023-07-31T01:45:49;3.10;;;2.80;;
58017;SDS011;43810;50.860;19.226;2023-07-31T01:48:15;6.82;;;3.05;;
58017;SDS011;43810;50.860;19.226;2023-07-31T01:50:41;4.10;;;2.97;;
58017;SDS011;43810;50.860;19.226;2023-07-31T01:53:07;4.78;;;2.83;;
58017;SDS011;43810;50.860;19.226;2023-07-31T01:55:33;3.95;;;2.70;;
58017;SDS011;43810;50.860;19.226;2023-07-31T01:57:58;4.32;;;3.25;;
58017;SDS011;43810;50.860;19.226;2023-07-31T02:00:24;5.38;;;2.47;;
58017;SDS011;43810;50.860;19.226;2023-07-31T02:02:50;5.00;;;3.10;;
58017;SDS011;43810;50.860;19.226;2023-07-31T02:05:16;4.90;;;2.75;;
58017;SDS011;43810;50.860;19.226;2023-07-31T02:07:41;3.47;;;2.88;;
58017;SDS011;43810;50.860;19.226;2023-07-31T02:10:07;3.83;;;2.85;;
58017;SDS011;43810;50.860;19.226;2023-07-31T02:12:33;4.07;;;3.05;;
58017;SDS011;43810;50.860;19.226;2023-07-31T02:14:59;3.67;;;2.92;;
58017;SDS011;43810;50.860;19.226;2023-07-31T02:17:24;4.45;;;3.15;;
58017;SDS011;43810;50.860;19.226;2023-07-31T02:19:50;3.85;;;3.33;;
58017;SDS011;43810;50.860;19.226;2023-07-31T02:22:16;3.90;;;2.95;;
58017;SDS011;43810;50.860;19.226;2023-07-31T02:24:42;3.63;;;2.90;;
58017;SDS011;43810;50.860;19.226;2023-07-31T02:27:07;3.70;;;3.08;;
58017;SDS011;43810;50.860;19.226;2023-07-31T02:29:33;4.00;;;3.17;;
58017;SDS011;43810;50.860;19.226;2023-07-31T02:31:59;5.13;;;3.10;;
58017;SDS011;43810;50.860;19.226;2023-07-31T02:34:25;5.55;;;3.35;;
58017;SDS011;43810;50.860;19.226;2023-07-31T02:36:50;4.35;;;3.22;;
58017;SDS011;43810;50.860;19.226;2023-07-31T02:39:16;5.05;;;4.55;;
58017;SDS011;43810;50.860;19.226;2023-07-31T02:41:42;6.35;;;2.88;;
58017;SDS011;43810;50.860;19.226;2023-07-31T02:44:08;6.20;;;3.53;;
58017;SDS011;43810;50.860;19.226;2023-07-31T02:46:35;4.68;;;3.65;;
58017;SDS011;43810;50.860;19.226;2023-07-31T02:49:01;5.88;;;3.33;;
58017;SDS011;43810;50.860;19.226;2023-07-31T02:51:27;8.15;;;3.55;;
58017;SDS011;43810;50.860;19.226;2023-07-31T02:53:53;4.97;;;3.13;;
58017;SDS011;43810;50.860;19.226;2023-07-31T02:56:18;4.45;;;3.40;;
58017;SDS011;43810;50.860;19.226;2023-07-31T02:58:45;4.95;;;3.50;;
58017;SDS011;43810;50.860;19.226;2023-07-31T03:01:10;7.63;;;3.58;;
58017;SDS011;43810;50.860;19.226;2023-07-31T03:03:36;4.70;;;3.33;;
58017;SDS011;43810;50.860;19.226;2023-07-31T03:06:02;4.95;;;3.50;;
58017;SDS011;43810;50.860;19.226;2023-07-31T03:08:28;3.63;;;3.08;;
58017;SDS011;43810;50.860;19.226;2023-07-31T03:10:54;4.53;;;3.47;;
58017;SDS011;43810;50.860;19.226;2023-07-31T03:13:20;4.22;;;3.28;;
58017;SDS011;43810;50.860;19.226;2023-07-31T03:15:45;4.00;;;3.17;;
58017;SDS011;43810;50.860;19.226;2023-07-31T03:18:12;5.78;;;3.75;;
58017;SDS011;43810;50.860;19.226;2023-07-31T03:20:37;6.50;;;3.40;;
58017;SDS011;43810;50.860;19.226;2023-07-31T03:23:07;6.05;;;3.08;;
58017;SDS011;43810;50.860;19.226;2023-07-31T03:25:33;3.95;;;2.78;;
58017;SDS011;43810;50.860;19.226;2023-07-31T03:27:59;4.57;;;3.05;;
58017;SDS011;43810;50.860;19.226;2023-07-31T03:30:25;5.60;;;3.35;;
58017;SDS011;43810;50.860;19.226;2023-07-31T03:32:51;6.07;;;3.30;;
58017;SDS011;43810;50.860;19.226;2023-07-31T03:35:16;4.72;;;3.22;;
58017;SDS011;43810;50.860;19.226;2023-07-31T03:37:42;4.97;;;3.10;;
58017;SDS011;43810;50.860;19.226;2023-07-31T03:40:08;3.53;;;2.70;;
58017;SDS011;43810;50.860;19.226;2023-07-31T03:42:35;6.60;;;3.58;;
58017;SDS011;43810;50.860;19.226;2023-07-31T03:45:00;7.05;;;3.22;;
58017;SDS011;43810;50.860;19.226;2023-07-31T03:47:26;8.45;;;3.30;;
58017;SDS011;43810;50.860;19.226;2023-07-31T03:49:52;7.10;;;3.13;;
58017;SDS011;43810;50.860;19.226;2023-07-31T03:52:18;5.25;;;2.95;;
58017;SDS011;43810;50.860;19.226;2023-07-31T03:54:44;5.93;;;3.13;;
58017;SDS011;43810;50.860;19.226;2023-07-31T03:57:10;4.72;;;3.20;;
58017;SDS011;43810;50.860;19.226;2023-07-31T03:59:36;7.68;;;3.40;;
58017;SDS011;43810;50.860;19.226;2023-07-31T04:02:04;5.63;;;3.75;;
58017;SDS011;43810;50.860;19.226;2023-07-31T04:04:30;5.63;;;3.20;;
58017;SDS011;43810;50.860;19.226;2023-07-31T04:06:56;5.13;;;3.30;;
58017;SDS011;43810;50.860;19.226;2023-07-31T04:09:22;4.15;;;2.45;;
58017;SDS011;43810;50.860;19.226;2023-07-31T04:11:48;6.53;;;2.97;;
58017;SDS011;43810;50.860;19.226;2023-07-31T04:14:13;4.30;;;2.53;;
58017;SDS011;43810;50.860;19.226;2023-07-31T04:16:39;6.88;;;3.08;;
58017;SDS011;43810;50.860;19.226;2023-07-31T04:19:05;3.92;;;2.60;;
58017;SDS011;43810;50.860;19.226;2023-07-31T04:21:31;4.32;;;2.55;;
58017;SDS011;43810;50.860;19.226;2023-07-31T04:23:57;7.60;;;2.55;;
58017;SDS011;43810;50.860;19.226;2023-07-31T04:26:24;4.60;;;2.40;;
58017;SDS011;43810;50.860;19.226;2023-07-31T04:28:49;6.10;;;2.75;;
58017;SDS011;43810;50.860;19.226;2023-07-31T04:31:15;2.97;;;2.67;;
58017;SDS011;43810;50.860;19.226;2023-07-31T04:33:41;3.90;;;2.80;;
58017;SDS011;43810;50.860;19.226;2023-07-31T04:36:07;4.22;;;2.40;;
58017;SDS011;43810;50.860;19.226;2023-07-31T04:38:33;5.95;;;2.70;;
58017;SDS011;43810;50.860;19.226;2023-07-31T04:40:59;8.05;;;3.00;;
58017;SDS011;43810;50.860;19.226;2023-07-31T04:43:24;4.90;;;3.20;;
58017;SDS011;43810;50.860;19.226;2023-07-31T04:45:50;5.03;;;2.75;;
58017;SDS011;43810;50.860;19.226;2023-07-31T04:48:16;5.75;;;3.30;;
58017;SDS011;43810;50.860;19.226;2023-07-31T04:50:42;5.50;;;2.60;;
58017;SDS011;43810;50.860;19.226;2023-07-31T04:53:07;4.57;;;3.03;;
58017;SDS011;43810;50.860;19.226;2023-07-31T04:55:33;4.75;;;3.13;;
58017;SDS011;43810;50.860;19.226;2023-07-31T04:57:59;4.82;;;2.50;;
58017;SDS011;43810;50.860;19.226;2023-07-31T05:00:25;4.30;;;3.20;;
58017;SDS011;43810;50.860;19.226;2023-07-31T05:02:51;5.60;;;3.40;;
58017;SDS011;43810;50.860;19.226;2023-07-31T05:05:17;4.05;;;2.40;;
58017;SDS011;43810;50.860;19.226;2023-07-31T05:07:42;2.92;;;2.42;;
58017;SDS011;43810;50.860;19.226;2023-07-31T05:10:08;4.63;;;2.55;;
58017;SDS011;43810;50.860;19.226;2023-07-31T05:12:34;4.22;;;2.80;;
58017;SDS011;43810;50.860;19.226;2023-07-31T05:15:00;4.60;;;2.50;;
58017;SDS011;43810;50.860;19.226;2023-07-31T05:17:25;5.30;;;3.05;;
58017;SDS011;43810;50.860;19.226;2023-07-31T05:19:51;3.08;;;2.60;;
58017;SDS011;43810;50.860;19.226;2023-07-31T05:22:17;3.03;;;2.25;;
58017;SDS011;43810;50.860;19.226;2023-07-31T05:24:43;3.50;;;2.88;;
58017;SDS011;43810;50.860;19.226;2023-07-31T05:27:09;3.95;;;2.55;;
58017;SDS011;43810;50.860;19.226;2023-07-31T05:29:35;4.82;;;2.72;;
58017;SDS011;43810;50.860;19.226;2023-07-31T05:32:01;5.03;;;2.85;;
58017;SDS011;43810;50.860;19.226;2023-07-31T05:34:27;5.93;;;2.95;;
58017;SDS011;43810;50.860;19.226;2023-07-31T05:36:52;4.68;;;3.05;;
58017;SDS011;43810;50.860;19.226;2023-07-31T05:39:18;4.40;;;2.92;;
58017;SDS011;43810;50.860;19.226;2023-07-31T05:41:45;4.18;;;2.78;;
58017;SDS011;43810;50.860;19.226;2023-07-31T05:44:11;3.90;;;2.50;;
58017;SDS011;43810;50.860;19.226;2023-07-31T05:46:36;4.35;;;2.55;;
58017;SDS011;43810;50.860;19.226;2023-07-31T05:49:02;6.03;;;3.10;;
58017;SDS011;43810;50.860;19.226;2023-07-31T05:51:28;5.18;;;3.03;;
58017;SDS011;43810;50.860;19.226;2023-07-31T05:53:54;6.40;;;3.20;;
58017;SDS011;43810;50.860;19.226;2023-07-31T05:56:20;5.45;;;2.95;;
58017;SDS011;43810;50.860;19.226;2023-07-31T05:58:46;4.45;;;3.00;;
58017;SDS011;43810;50.860;19.226;2023-07-31T06:01:12;7.57;;;2.85;;
58017;SDS011;43810;50.860;19.226;2023-07-31T06:03:38;7.55;;;2.92;;
58017;SDS011;43810;50.860;19.226;2023-07-31T06:06:03;7.18;;;2.85;;
58017;SDS011;43810;50.860;19.226;2023-07-31T06:08:29;4.13;;;2.60;;
58017;SDS011;43810;50.860;19.226;2023-07-31T06:10:55;5.50;;;2.38;;
58017;SDS011;43810;50.860;19.226;2023-07-31T06:13:21;5.22;;;2.53;;
58017;SDS011;43810;50.860;19.226;2023-07-31T06:15:46;5.75;;;2.40;;
58017;SDS011;43810;50.860;19.226;2023-07-31T06:18:12;3.55;;;2.35;;
58017;SDS011;43810;50.860;19.226;2023-07-31T06:20:38;7.30;;;2.63;;
58017;SDS011;43810;50.860;19.226;2023-07-31T06:23:06;2.65;;;2.45;;
58017;SDS011;43810;50.860;19.226;2023-07-31T06:25:31;5.32;;;2.28;;
58017;SDS011;43810;50.860;19.226;2023-07-31T06:27:57;5.18;;;2.80;;
58017;SDS011;43810;50.860;19.226;2023-07-31T06:30:23;4.07;;;2.33;;
58017;SDS011;43810;50.860;19.226;2023-07-31T06:32:49;4.20;;;2.58;;
58017;SDS011;43810;50.860;19.226;2023-07-31T06:35:14;3.58;;;2.00;;
58017;SDS011;43810;50.860;19.226;2023-07-31T06:37:40;7.18;;;2.83;;
58017;SDS011;43810;50.860;19.226;2023-07-31T06:40:09;3.92;;;2.70;;
58017;SDS011;43810;50.860;19.226;2023-07-31T06:42:35;4.18;;;2.35;;
58017;SDS011;43810;50.860;19.226;2023-07-31T06:45:01;3.95;;;2.20;;
58017;SDS011;43810;50.860;19.226;2023-07-31T06:47:31;5.63;;;2.80;;
58017;SDS011;43810;50.860;19.226;2023-07-31T06:49:57;4.80;;;2.58;;
58017;SDS011;43810;50.860;19.226;2023-07-31T06:52:23;3.65;;;2.40;;
58017;SDS011;43810;50.860;19.226;2023-07-31T06:55:00;5.25;;;2.50;;
58017;SDS011;43810;50.860;19.226;2023-07-31T06:57:42;5.25;;;2.28;;
58017;SDS011;43810;50.860;19.226;2023-07-31T07:00:08;6.32;;;2.53;;
58017;SDS011;43810;50.860;19.226;2023-07-31T07:02:35;4.32;;;2.38;;
58017;SDS011;43810;50.860;19.226;2023-07-31T07:05:01;6.15;;;2.20;;
58017;SDS011;43810;50.860;19.226;2023-07-31T07:07:26;3.88;;;2.70;;
58017;SDS011;43810;50.860;19.226;2023-07-31T07:09:52;5.03;;;2.17;;
58017;SDS011;43810;50.860;19.226;2023-07-31T07:12:18;4.40;;;2.03;;
58017;SDS011;43810;50.860;19.226;2023-07-31T07:14:44;5.07;;;2.13;;
58017;SDS011;43810;50.860;19.226;2023-07-31T07:17:11;3.83;;;1.80;;
58017;SDS011;43810;50.860;19.226;2023-07-31T07:19:40;4.50;;;1.98;;
58017;SDS011;43810;50.860;19.226;2023-07-31T07:22:06;5.25;;;2.00;;
58017;SDS011;43810;50.860;19.226;2023-07-31T07:24:31;3.75;;;2.20;;
58017;SDS011;43810;50.860;19.226;2023-07-31T07:26:57;5.35;;;1.95;;
58017;SDS011;43810;50.860;19.226;2023-07-31T07:29:23;4.85;;;1.95;;
58017;SDS011;43810;50.860;19.226;2023-07-31T07:31:49;4.00;;;1.92;;
58017;SDS011;43810;50.860;19.226;2023-07-31T07:34:15;6.45;;;2.13;;
58017;SDS011;43810;50.860;19.226;2023-07-31T07:36:41;5.30;;;2.10;;
58017;SDS011;43810;50.860;19.226;2023-07-31T07:39:06;4.80;;;2.38;;
58017;SDS011;43810;50.860;19.226;2023-07-31T07:41:32;3.50;;;2.17;;
58017;SDS011;43810;50.860;19.226;2023-07-31T07:43:58;3.03;;;1.80;;
58017;SDS011;43810;50.860;19.226;2023-07-31T07:46:24;2.47;;;1.60;;
58017;SDS011;43810;50.860;19.226;2023-07-31T07:48:49;4.68;;;1.75;;
58017;SDS011;43810;50.860;19.226;2023-07-31T07:51:15;5.78;;;2.03;;
58017;SDS011;43810;50.860;19.226;2023-07-31T07:53:41;3.15;;;1.75;;
58017;SDS011;43810;50.860;19.226;2023-07-31T07:56:07;4.20;;;1.63;;
58017;SDS011;43810;50.860;19.226;2023-07-31T07:58:32;4.45;;;1.40;;
58017;SDS011;43810;50.860;19.226;2023-07-31T08:00:58;3.13;;;1.77;;
58017;SDS011;43810;50.860;19.226;2023-07-31T08:03:24;4.47;;;1.75;;
58017;SDS011;43810;50.860;19.226;2023-07-31T08:05:50;3.78;;;1.70;;
58017;SDS011;43810;50.860;19.226;2023-07-31T08:08:15;6.20;;;1.30;;
58017;SDS011;43810;50.860;19.226;2023-07-31T08:10:42;4.13;;;1.42;;
58017;SDS011;43810;50.860;19.226;2023-07-31T08:13:09;2.88;;;1.70;;
58017;SDS011;43810;50.860;19.226;2023-07-31T08:15:36;2.67;;;1.15;;
58017;SDS011;43810;50.860;19.226;2023-07-31T08:18:02;3.25;;;0.95;;
58017;SDS011;43810;50.860;19.226;2023-07-31T08:20:28;3.28;;;1.30;;
58017;SDS011;43810;50.860;19.226;2023-07-31T08:22:54;8.40;;;1.60;;
58017;SDS011;43810;50.860;19.226;2023-07-31T08:25:20;2.30;;;1.23;;
58017;SDS011;43810;50.860;19.226;2023-07-31T08:27:45;4.03;;;1.25;;
58017;SDS011;43810;50.860;19.226;2023-07-31T08:30:11;4.45;;;1.20;;
58017;SDS011;43810;50.860;19.226;2023-07-31T08:32:37;4.55;;;2.08;;
58017;SDS011;43810;50.860;19.226;2023-07-31T08:35:03;3.42;;;1.00;;
58017;SDS011;43810;50.860;19.226;2023-07-31T08:37:29;4.18;;;1.42;;
58017;SDS011;43810;50.860;19.226;2023-07-31T08:39:55;2.58;;;1.33;;
58017;SDS011;43810;50.860;19.226;2023-07-31T08:42:21;5.72;;;1.42;;
58017;SDS011;43810;50.860;19.226;2023-07-31T08:44:47;4.00;;;1.30;;
58017;SDS011;43810;50.860;19.226;2023-07-31T08:47:13;6.60;;;1.25;;
58017;SDS011;43810;50.860;19.226;2023-07-31T08:49:40;2.08;;;1.38;;
58017;SDS011;43810;50.860;19.226;2023-07-31T08:52:07;3.60;;;1.38;;
58017;SDS011;43810;50.860;19.226;2023-07-31T08:54:33;2.78;;;1.40;;
58017;SDS011;43810;50.860;19.226;2023-07-31T08:56:59;3.10;;;1.40;;
58017;SDS011;43810;50.860;19.226;2023-07-31T08:59:29;4.45;;;1.30;;
58017;SDS011;43810;50.860;19.226;2023-07-31T09:01:57;3.58;;;1.30;;
58017;SDS011;43810;50.860;19.226;2023-07-31T09:04:25;2.53;;;1.30;;
58017;SDS011;43810;50.860;19.226;2023-07-31T09:06:53;3.28;;;1.00;;
58017;SDS011;43810;50.860;19.226;2023-07-31T09:09:25;2.90;;;1.40;;
58017;SDS011;43810;50.860;19.226;2023-07-31T09:11:54;4.50;;;1.10;;
58017;SDS011;43810;50.860;19.226;2023-07-31T09:14:21;2.95;;;1.42;;
58017;SDS011;43810;50.860;19.226;2023-07-31T09:16:57;1.30;;;1.20;;
58017;SDS011;43810;50.860;19.226;2023-07-31T09:19:26;4.30;;;1.48;;
58017;SDS011;43810;50.860;19.226;2023-07-31T09:21:52;2.63;;;1.25;;
58017;SDS011;43810;50.860;19.226;2023-07-31T09:24:25;3.60;;;1.27;;
58017;SDS011;43810;50.860;19.226;2023-07-31T09:26:53;3.08;;;1.40;;
58017;SDS011;43810;50.860;19.226;2023-07-31T09:29:20;4.00;;;1.63;;
58017;SDS011;43810;50.860;19.226;2023-07-31T09:31:46;2.67;;;1.42;;
58017;SDS011;43810;50.860;19.226;2023-07-31T09:34:12;10.20;;;1.83;;
58017;SDS011;43810;50.860;19.226;2023-07-31T09:36:42;2.42;;;1.17;;
58017;SDS011;43810;50.860;19.226;2023-07-31T09:39:10;4.85;;;1.40;;
58017;SDS011;43810;50.860;19.226;2023-07-31T09:41:38;2.55;;;1.40;;
58017;SDS011;43810;50.860;19.226;2023-07-31T09:44:05;2.00;;;1.10;;
58017;SDS011;43810;50.860;19.226;2023-07-31T09:46:31;5.75;;;1.40;;
58017;SDS011;43810;50.860;19.226;2023-07-31T09:49:18;2.90;;;1.55;;
58017;SDS011;43810;50.860;19.226;2023-07-31T09:51:42;3.72;;;1.27;;
58017;SDS011;43810;50.860;19.226;2023-07-31T09:54:12;2.08;;;1.20;;
58017;SDS011;43810;50.860;19.226;2023-07-31T09:59:12;3.95;;;1.45;;
58017;SDS011;43810;50.860;19.226;2023-07-31T10:01:40;3.28;;;1.30;;
58017;SDS011;43810;50.860;19.226;2023-07-31T10:04:08;2.15;;;1.50;;
58017;SDS011;43810;50.860;19.226;2023-07-31T10:06:37;2.90;;;1.48;;
58017;SDS011;43810;50.860;19.226;2023-07-31T10:09:08;3.35;;;1.50;;
58017;SDS011;43810;50.860;19.226;2023-07-31T10:11:59;3.38;;;1.30;;
58017;SDS011;43810;50.860;19.226;2023-07-31T10:14:27;3.17;;;1.25;;
58017;SDS011;43810;50.860;19.226;2023-07-31T10:16:54;3.53;;;1.50;;
58017;SDS011;43810;50.860;19.226;2023-07-31T10:19:21;5.25;;;1.52;;
58017;SDS011;43810;50.860;19.226;2023-07-31T10:21:48;3.42;;;1.60;;
58017;SDS011;43810;50.860;19.226;2023-07-31T10:24:14;3.03;;;1.42;;
58017;SDS011;43810;50.860;19.226;2023-07-31T10:26:41;5.53;;;1.40;;
58017;SDS011;43810;50.860;19.226;2023-07-31T10:29:11;2.95;;;1.60;;
58017;SDS011;43810;50.860;19.226;2023-07-31T10:31:37;2.72;;;1.30;;
58017;SDS011;43810;50.860;19.226;2023-07-31T10:34:04;4.55;;;1.27;;
58017;SDS011;43810;50.860;19.226;2023-07-31T10:36:30;4.65;;;1.40;;
58017;SDS011;43810;50.860;19.226;2023-07-31T10:38:56;1.08;;;0.95;;
58017;SDS011;43810;50.860;19.226;2023-07-31T10:41:31;6.28;;;1.42;;
58017;SDS011;43810;50.860;19.226;2023-07-31T10:44:00;4.95;;;1.65;;
58017;SDS011;43810;50.860;19.226;2023-07-31T10:46:27;4.05;;;1.40;;
58017;SDS011;43810;50.860;19.226;2023-07-31T10:48:57;3.22;;;1.33;;
58017;SDS011;43810;50.860;19.226;2023-07-31T10:51:26;2.70;;;1.50;;
58017;SDS011;43810;50.860;19.226;2023-07-31T10:54:20;2.28;;;1.05;;
58017;SDS011;43810;50.860;19.226;2023-07-31T10:56:45;7.88;;;1.50;;
58017;SDS011;43810;50.860;19.226;2023-07-31T10:59:14;3.10;;;1.40;;
58017;SDS011;43810;50.860;19.226;2023-07-31T11:01:55;5.70;;;1.25;;
58017;SDS011;43810;50.860;19.226;2023-07-31T11:04:28;5.38;;;1.80;;
58017;SDS011;43810;50.860;19.226;2023-07-31T11:06:56;3.80;;;1.27;;
58017;SDS011;43810;50.860;19.226;2023-07-31T11:09:24;3.28;;;1.30;;
58017;SDS011;43810;50.860;19.226;2023-07-31T11:11:55;4.68;;;3.08;;
58017;SDS011;43810;50.860;19.226;2023-07-31T11:14:21;2.58;;;1.50;;
58017;SDS011;43810;50.860;19.226;2023-07-31T11:16:49;3.80;;;1.35;;
58017;SDS011;43810;50.860;19.226;2023-07-31T11:19:26;3.50;;;1.38;;
58017;SDS011;43810;50.860;19.226;2023-07-31T11:21:52;2.25;;;1.10;;
58017;SDS011;43810;50.860;19.226;2023-07-31T11:24:18;3.85;;;1.17;;
58017;SDS011;43810;50.860;19.226;2023-07-31T11:26:51;4.18;;;1.40;;
58017;SDS011;43810;50.860;19.226;2023-07-31T11:29:18;2.47;;;1.10;;
58017;SDS011;43810;50.860;19.226;2023-07-31T11:31:45;3.97;;;1.20;;
58017;SDS011;43810;50.860;19.226;2023-07-31T11:34:12;3.53;;;1.30;;
58017;SDS011;43810;50.860;19.226;2023-07-31T11:36:37;4.38;;;1.38;;
58017;SDS011;43810;50.860;19.226;2023-07-31T11:39:04;5.78;;;1.20;;
58017;SDS011;43810;50.860;19.226;2023-07-31T11:41:31;3.05;;;1.42;;
58017;SDS011;43810;50.860;19.226;2023-07-31T11:44:00;3.15;;;1.65;;
58017;SDS011;43810;50.860;19.226;2023-07-31T11:46:27;3.10;;;1.70;;
58017;SDS011;43810;50.860;19.226;2023-07-31T11:48:59;4.68;;;1.38;;
58017;SDS011;43810;50.860;19.226;2023-07-31T11:51:25;2.92;;;1.52;;
58017;SDS011;43810;50.860;19.226;2023-07-31T11:53:56;3.85;;;1.67;;
58017;SDS011;43810;50.860;19.226;2023-07-31T11:56:25;2.90;;;1.08;;
58017;SDS011;43810;50.860;19.226;2023-07-31T11:59:00;4.38;;;1.48;;
58017;SDS011;43810;50.860;19.226;2023-07-31T12:01:28;4.95;;;1.42;;
58017;SDS011;43810;50.860;19.226;2023-07-31T12:03:55;3.42;;;1.35;;
58017;SDS011;43810;50.860;19.226;2023-07-31T12:06:21;2.70;;;1.25;;
58017;SDS011;43810;50.860;19.226;2023-07-31T12:09:02;4.43;;;1.90;;
58017;SDS011;43810;50.860;19.226;2023-07-31T12:11:29;3.33;;;1.30;;
58017;SDS011;43810;50.860;19.226;2023-07-31T12:13:55;2.17;;;1.23;;
58017;SDS011;43810;50.860;19.226;2023-07-31T12:16:20;3.78;;;1.45;;
58017;SDS011;43810;50.860;19.226;2023-07-31T12:18:49;4.03;;;1.10;;
58017;SDS011;43810;50.860;19.226;2023-07-31T12:21:14;3.45;;;1.20;;
58017;SDS011;43810;50.860;19.226;2023-07-31T12:23:43;3.10;;;1.20;;
58017;SDS011;43810;50.860;19.226;2023-07-31T12:26:12;1.88;;;1.17;;
58017;SDS011;43810;50.860;19.226;2023-07-31T12:28:42;3.53;;;0.90;;
58017;SDS011;43810;50.860;19.226;2023-07-31T12:31:10;1.95;;;1.00;;
58017;SDS011;43810;50.860;19.226;2023-07-31T12:33:41;3.38;;;1.35;;
58017;SDS011;43810;50.860;19.226;2023-07-31T12:36:08;5.57;;;1.23;;
58017;SDS011;43810;50.860;19.226;2023-07-31T12:38:35;2.38;;;1.23;;
58017;SDS011;43810;50.860;19.226;2023-07-31T12:41:01;1.55;;;1.05;;
58017;SDS011;43810;50.860;19.226;2023-07-31T12:43:27;4.72;;;1.40;;
58017;SDS011;43810;50.860;19.226;2023-07-31T12:45:56;2.35;;;0.90;;
58017;SDS011;43810;50.860;19.226;2023-07-31T12:48:22;3.50;;;1.40;;
58017;SDS011;43810;50.860;19.226;2023-07-31T12:50:47;3.30;;;1.13;;
58017;SDS011;43810;50.860;19.226;2023-07-31T12:53:14;2.28;;;1.02;;
58017;SDS011;43810;50.860;19.226;2023-07-31T12:55:41;4.60;;;1.33;;
58017;SDS011;43810;50.860;19.226;2023-07-31T12:58:07;5.75;;;1.13;;
58017;SDS011;43810;50.860;19.226;2023-07-31T13:00:35;2.60;;;1.50;;
58017;SDS011;43810;50.860;19.226;2023-07-31T13:03:01;6.13;;;1.55;;
58017;SDS011;43810;50.860;19.226;2023-07-31T13:05:28;4.78;;;1.40;;
58017;SDS011;43810;50.860;19.226;2023-07-31T13:07:54;3.42;;;1.30;;
58017;SDS011;43810;50.860;19.226;2023-07-31T13:10:20;2.85;;;1.20;;
58017;SDS011;43810;50.860;19.226;2023-07-31T13:12:47;2.67;;;1.00;;
58017;SDS011;43810;50.860;19.226;2023-07-31T13:15:13;4.15;;;1.30;;
58017;SDS011;43810;50.860;19.226;2023-07-31T13:17:42;3.85;;;1.38;;
58017;SDS011;43810;50.860;19.226;2023-07-31T13:20:08;3.63;;;1.75;;
58017;SDS011;43810;50.860;19.226;2023-07-31T13:22:34;2.15;;;1.27;;
58017;SDS011;43810;50.860;19.226;2023-07-31T13:25:00;2.85;;;1.20;;
58017;SDS011;43810;50.860;19.226;2023-07-31T13:27:26;1.98;;;0.85;;
58017;SDS011;43810;50.860;19.226;2023-07-31T13:29:52;2.38;;;1.10;;
58017;SDS011;43810;50.860;19.226;2023-07-31T13:32:18;3.50;;;1.10;;
58017;SDS011;43810;50.860;19.226;2023-07-31T13:34:46;5.50;;;1.02;;
58017;SDS011;43810;50.860;19.226;2023-07-31T13:37:15;2.10;;;1.08;;
58017;SDS011;43810;50.860;19.226;2023-07-31T13:39:41;2.97;;;1.30;;
58017;SDS011;43810;50.860;19.226;2023-07-31T13:42:08;3.13;;;1.08;;
58017;SDS011;43810;50.860;19.226;2023-07-31T13:44:34;3.33;;;0.90;;
58017;SDS011;43810;50.860;19.226;2023-07-31T13:47:01;2.58;;;1.20;;
58017;SDS011;43810;50.860;19.226;2023-07-31T13:49:30;6.13;;;1.45;;
58017;SDS011;43810;50.860;19.226;2023-07-31T13:51:56;4.60;;;1.40;;
58017;SDS011;43810;50.860;19.226;2023-07-31T13:54:23;5.38;;;1.52;;
58017;SDS011;43810;50.860;19.226;2023-07-31T13:56:50;2.38;;;1.20;;
58017;SDS011;43810;50.860;19.226;2023-07-31T13:59:15;3.70;;;1.40;;
58017;SDS011;43810;50.860;19.226;2023-07-31T14:01:44;3.28;;;1.10;;
58017;SDS011;43810;50.860;19.226;2023-07-31T14:04:10;2.67;;;1.10;;
58017;SDS011;43810;50.860;19.226;2023-07-31T14:06:36;2.60;;;1.20;;
58017;SDS011;43810;50.860;19.226;2023-07-31T14:09:02;2.22;;;1.00;;
58017;SDS011;43810;50.860;19.226;2023-07-31T14:11:28;3.38;;;1.02;;
58017;SDS011;43810;50.860;19.226;2023-07-31T14:13:56;2.00;;;1.30;;
58017;SDS011;43810;50.860;19.226;2023-07-31T14:16:23;4.22;;;1.23;;
58017;SDS011;43810;50.860;19.226;2023-07-31T14:18:48;2.97;;;1.17;;
58017;SDS011;43810;50.860;19.226;2023-07-31T14:21:15;4.90;;;1.23;;
58017;SDS011;43810;50.860;19.226;2023-07-31T14:23:41;1.92;;;1.10;;
58017;SDS011;43810;50.860;19.226;2023-07-31T14:26:08;2.55;;;1.52;;
58017;SDS011;43810;50.860;19.226;2023-07-31T14:28:34;3.60;;;1.08;;
58017;SDS011;43810;50.860;19.226;2023-07-31T14:30:59;2.47;;;1.50;;
58017;SDS011;43810;50.860;19.226;2023-07-31T14:33:25;1.88;;;1.40;;
58017;SDS011;43810;50.860;19.226;2023-07-31T14:35:54;3.22;;;1.60;;
58017;SDS011;43810;50.860;19.226;2023-07-31T14:38:20;2.65;;;1.70;;
58017;SDS011;43810;50.860;19.226;2023-07-31T14:40:46;3.22;;;2.15;;
58017;SDS011;43810;50.860;19.226;2023-07-31T14:43:14;3.58;;;1.67;;